Terminal Aerodrome Forecast
Issued by NWS Memphis, TN

Home | Current Version | Previous Version | Text Only | Print | Product List | Glossary On
Versions: 1 2 3 4 5 6 7 8 9 10 11 12 13 14 15 16 17 18 19 20 21 22 23 24 25 26 27 28 29 30 31 32 33 34 35 36 37
000
FTUS44 KMEG 271720
TAFMEM
TAF
KMEM 271720Z 2718/2818 21008KT P6SM VCSH SCT050 OVC150
      TEMPO 2718/2720 -SHRA BKN050
     FM272200 17007KT P6SM SCT050 BKN250
     FM280200 16004KT P6SM FEW150 SCT250
     FM281100 16004KT 5SM BR BKN005
      TEMPO 2812/2814 BKN003
     FM281500 16008KT P6SM BKN012 BKN250=

USA.gov is the U.S. government's official web portal to all federal, state and local government web resources and services.